sensor_id;sensor_type;location;lat;lon;timestamp;pressure;altitude;pressure_sealevel;temperature
64394;BMP280;50712;49.506;10.400;2022-07-06T00:00:05;98572.78;;;23.85
64394;BMP280;50712;49.506;10.400;2022-07-06T00:00:36;98558.13;;;23.85
64394;BMP280;50712;49.506;10.400;2022-07-06T00:01:07;98568.50;;;23.84
64394;BMP280;50712;49.506;10.400;2022-07-06T00:01:37;98569.06;;;23.83
64394;BMP280;50712;49.506;10.400;2022-07-06T00:02:08;98569.75;;;23.83
64394;BMP280;50712;49.506;10.400;2022-07-06T00:02:38;98573.09;;;23.82
64394;BMP280;50712;49.506;10.400;2022-07-06T00:03:09;98566.78;;;23.81
64394;BMP280;50712;49.506;10.400;2022-07-06T00:03:39;98568.03;;;23.80
64394;BMP280;50712;49.506;10.400;2022-07-06T00:04:10;98566.78;;;23.81
64394;BMP280;50712;49.506;10.400;2022-07-06T00:04:40;98570.81;;;23.80
64394;BMP280;50712;49.506;10.400;2022-07-06T00:05:10;98569.34;;;23.79
64394;BMP280;50712;49.506;10.400;2022-07-06T00:05:41;98572.13;;;23.79
64394;BMP280;50712;49.506;10.400;2022-07-06T00:06:11;98569.09;;;23.77
64394;BMP280;50712;49.506;10.400;2022-07-06T00:06:42;98575.94;;;23.76
64394;BMP280;50712;49.506;10.400;2022-07-06T00:07:12;98572.44;;;23.76
64394;BMP280;50712;49.506;10.400;2022-07-06T00:07:44;98572.94;;;23.74
64394;BMP280;50712;49.506;10.400;2022-07-06T00:08:14;98564.56;;;23.74
64394;BMP280;50712;49.506;10.400;2022-07-06T00:08:44;98569.72;;;23.70
64394;BMP280;50712;49.506;10.400;2022-07-06T00:09:15;98569.19;;;23.72
64394;BMP280;50712;49.506;10.400;2022-07-06T00:09:46;98570.44;;;23.71
64394;BMP280;50712;49.506;10.400;2022-07-06T00:10:16;98568.19;;;23.69
64394;BMP280;50712;49.506;10.400;2022-07-06T00:10:46;98570.97;;;23.69
64394;BMP280;50712;49.506;10.400;2022-07-06T00:11:17;98567.97;;;23.67
64394;BMP280;50712;49.506;10.400;2022-07-06T00:11:47;98567.97;;;23.67
64394;BMP280;50712;49.506;10.400;2022-07-06T00:12:18;98565.69;;;23.66
64394;BMP280;50712;49.506;10.400;2022-07-06T00:12:48;98567.00;;;23.65
64394;BMP280;50712;49.506;10.400;2022-07-06T00:13:18;98569.00;;;23.64
64394;BMP280;50712;49.506;10.400;2022-07-06T00:13:49;98573.09;;;23.63
64394;BMP280;50712;49.506;10.400;2022-07-06T00:14:20;98571.56;;;23.62
64394;BMP280;50712;49.506;10.400;2022-07-06T00:14:50;98570.06;;;23.61
64394;BMP280;50712;49.506;10.400;2022-07-06T00:15:21;98568.56;;;23.60
64394;BMP280;50712;49.506;10.400;2022-07-06T00:15:51;98568.56;;;23.60
64394;BMP280;50712;49.506;10.400;2022-07-06T00:16:22;98572.41;;;23.57
64394;BMP280;50712;49.506;10.400;2022-07-06T00:16:53;98568.13;;;23.56
64394;BMP280;50712;49.506;10.400;2022-07-06T00:17:23;98572.16;;;23.55
64394;BMP280;50712;49.506;10.400;2022-07-06T00:17:53;98569.94;;;23.54
64394;BMP280;50712;49.506;10.400;2022-07-06T00:18:24;98567.16;;;23.54
64394;BMP280;50712;49.506;10.400;2022-07-06T00:18:54;98564.88;;;23.52
64394;BMP280;50712;49.506;10.400;2022-07-06T00:19:25;98573.22;;;23.52
64394;BMP280;50712;49.506;10.400;2022-07-06T00:19:55;98570.22;;;23.50
64394;BMP280;50712;49.506;10.400;2022-07-06T00:20:25;98566.69;;;23.50
64394;BMP280;50712;49.506;10.400;2022-07-06T00:20:56;98568.69;;;23.49
64394;BMP280;50712;49.506;10.400;2022-07-06T00:21:26;98566.44;;;23.48
64394;BMP280;50712;49.506;10.400;2022-07-06T00:21:57;98576.09;;;23.47
64394;BMP280;50712;49.506;10.400;2022-07-06T00:22:27;98571.00;;;23.45
64394;BMP280;50712;49.506;10.400;2022-07-06T00:22:58;98575.84;;;23.45
64394;BMP280;50712;49.506;10.400;2022-07-06T00:23:28;98573.59;;;23.43
64394;BMP280;50712;49.506;10.400;2022-07-06T00:23:58;98575.59;;;23.43
64394;BMP280;50712;49.506;10.400;2022-07-06T00:24:30;98574.84;;;23.42
64394;BMP280;50712;49.506;10.400;2022-07-06T00:25:00;98573.34;;;23.41
64394;BMP280;50712;49.506;10.400;2022-07-06T00:25:30;98574.63;;;23.40
64394;BMP280;50712;49.506;10.400;2022-07-06T00:26:01;98572.34;;;23.39
64394;BMP280;50712;49.506;10.400;2022-07-06T00:26:31;98568.09;;;23.38
64394;BMP280;50712;49.506;10.400;2022-07-06T00:27:02;98569.34;;;23.37
64394;BMP280;50712;49.506;10.400;2022-07-06T00:27:32;98574.91;;;23.37
64394;BMP280;50712;49.506;10.400;2022-07-06T00:28:03;98574.19;;;23.36
64394;BMP280;50712;49.506;10.400;2022-07-06T00:28:34;98568.38;;;23.34
64394;BMP280;50712;49.506;10.400;2022-07-06T00:29:04;98566.34;;;23.35
64394;BMP280;50712;49.506;10.400;2022-07-06T00:29:35;98566.84;;;23.33
64394;BMP280;50712;49.506;10.400;2022-07-06T00:30:06;98568.91;;;23.33
64394;BMP280;50712;49.506;10.400;2022-07-06T00:30:37;98563.88;;;23.31
64394;BMP280;50712;49.506;10.400;2022-07-06T00:31:07;98565.13;;;23.30
64394;BMP280;50712;49.506;10.400;2022-07-06T00:31:37;98570.69;;;23.30
64394;BMP280;50712;49.506;10.400;2022-07-06T00:32:08;98563.63;;;23.29
64394;BMP280;50712;49.506;10.400;2022-07-06T00:32:38;98569.94;;;23.30
64394;BMP280;50712;49.506;10.400;2022-07-06T00:33:09;98570.47;;;23.28
64394;BMP280;50712;49.506;10.400;2022-07-06T00:33:39;98573.00;;;23.26
64394;BMP280;50712;49.506;10.400;2022-07-06T00:34:09;98567.44;;;23.26
64394;BMP280;50712;49.506;10.400;2022-07-06T00:34:40;98563.19;;;23.25
64394;BMP280;50712;49.506;10.400;2022-07-06T00:35:10;98560.41;;;23.25
64394;BMP280;50712;49.506;10.400;2022-07-06T00:35:41;98568.00;;;23.25
64394;BMP280;50712;49.506;10.400;2022-07-06T00:36:11;98564.44;;;23.24
64394;BMP280;50712;49.506;10.400;2022-07-06T00:36:41;98560.91;;;23.24
64394;BMP280;50712;49.506;10.400;2022-07-06T00:37:12;98562.91;;;23.23
64394;BMP280;50712;49.506;10.400;2022-07-06T00:37:45;98562.91;;;23.23
64394;BMP280;50712;49.506;10.400;2022-07-06T00:38:15;98564.97;;;23.23
64394;BMP280;50712;49.506;10.400;2022-07-06T00:38:46;98567.75;;;23.23
64394;BMP280;50712;49.506;10.400;2022-07-06T00:39:16;98566.25;;;23.22
64394;BMP280;50712;49.506;10.400;2022-07-06T00:39:48;98570.31;;;23.21
64394;BMP280;50712;49.506;10.400;2022-07-06T00:40:19;98566.75;;;23.20
64394;BMP280;50712;49.506;10.400;2022-07-06T00:40:49;98563.97;;;23.20
64394;BMP280;50712;49.506;10.400;2022-07-06T00:41:20;98571.59;;;23.20
64394;BMP280;50712;49.506;10.400;2022-07-06T00:41:50;98572.09;;;23.18
64394;BMP280;50712;49.506;10.400;2022-07-06T00:42:21;98564.50;;;23.19
64394;BMP280;50712;49.506;10.400;2022-07-06T00:42:51;98564.25;;;23.17
64394;BMP280;50712;49.506;10.400;2022-07-06T00:43:21;98567.03;;;23.17
64394;BMP280;50712;49.506;10.400;2022-07-06T00:43:53;98569.59;;;23.15
64394;BMP280;50712;49.506;10.400;2022-07-06T00:44:25;98571.63;;;23.14
64394;BMP280;50712;49.506;10.400;2022-07-06T00:44:55;98572.16;;;23.13
64394;BMP280;50712;49.506;10.400;2022-07-06T00:45:26;98563.81;;;23.13
64394;BMP280;50712;49.506;10.400;2022-07-06T00:45:58;98570.63;;;23.12
64394;BMP280;50712;49.506;10.400;2022-07-06T00:46:32;98576.00;;;23.10
64394;BMP280;50712;49.506;10.400;2022-07-06T00:47:02;98569.16;;;23.11
64394;BMP280;50712;49.506;10.400;2022-07-06T00:47:33;98573.97;;;23.10
64394;BMP280;50712;49.506;10.400;2022-07-06T00:48:04;98568.91;;;23.09
64394;BMP280;50712;49.506;10.400;2022-07-06T00:48:34;98572.44;;;23.09
64394;BMP280;50712;49.506;10.400;2022-07-06T00:49:05;98572.44;;;23.09
64394;BMP280;50712;49.506;10.400;2022-07-06T00:49:55;98568.91;;;23.09
64394;BMP280;50712;49.506;10.400;2022-07-06T00:50:45;98572.94;;;23.08
64394;BMP280;50712;49.506;10.400;2022-07-06T00:51:16;98575.00;;;23.07
64394;BMP280;50712;49.506;10.400;2022-07-06T00:51:47;98576.28;;;23.06
64394;BMP280;50712;49.506;10.400;2022-07-06T00:52:17;98570.72;;;23.06
64394;BMP280;50712;49.506;10.400;2022-07-06T00:52:50;98572.75;;;23.06
64394;BMP280;50712;49.506;10.400;2022-07-06T00:53:20;98570.44;;;23.04
64394;BMP280;50712;49.506;10.400;2022-07-06T00:53:51;98572.50;;;23.03
64394;BMP280;50712;49.506;10.400;2022-07-06T00:54:25;98576.56;;;23.02
64394;BMP280;50712;49.506;10.400;2022-07-06T00:54:57;98575.81;;;23.02
64394;BMP280;50712;49.506;10.400;2022-07-06T00:55:29;98576.56;;;23.02
64394;BMP280;50712;49.506;10.400;2022-07-06T00:56:04;98581.38;;;23.02
64394;BMP280;50712;49.506;10.400;2022-07-06T00:56:34;98580.59;;;23.01
64394;BMP280;50712;49.506;10.400;2022-07-06T00:57:05;98571.50;;;23.01
64394;BMP280;50712;49.506;10.400;2022-07-06T00:57:36;98576.31;;;23.00
64394;BMP280;50712;49.506;10.400;2022-07-06T00:58:08;98579.09;;;23.00
64394;BMP280;50712;49.506;10.400;2022-07-06T00:58:38;98575.56;;;23.00
64394;BMP280;50712;49.506;10.400;2022-07-06T00:59:09;98574.06;;;22.99
64394;BMP280;50712;49.506;10.400;2022-07-06T00:59:39;98575.31;;;22.98
64394;BMP280;50712;49.506;10.400;2022-07-06T01:00:11;98568.28;;;22.97
64394;BMP280;50712;49.506;10.400;2022-07-06T01:00:42;98572.34;;;22.96
64394;BMP280;50712;49.506;10.400;2022-07-06T01:01:15;98574.34;;;22.95
64394;BMP280;50712;49.506;10.400;2022-07-06T01:01:45;98574.34;;;22.95
64394;BMP280;50712;49.506;10.400;2022-07-06T01:02:15;98574.88;;;22.94
64394;BMP280;50712;49.506;10.400;2022-07-06T01:02:46;98568.56;;;22.93
64394;BMP280;50712;49.506;10.400;2022-07-06T01:03:17;98578.91;;;22.93
64394;BMP280;50712;49.506;10.400;2022-07-06T01:03:48;98571.88;;;22.92
64394;BMP280;50712;49.506;10.400;2022-07-06T01:04:18;98580.72;;;22.90
64394;BMP280;50712;49.506;10.400;2022-07-06T01:04:49;98577.94;;;22.90
64394;BMP280;50712;49.506;10.400;2022-07-06T01:05:19;98577.72;;;22.88
64394;BMP280;50712;49.506;10.400;2022-07-06T01:05:50;98572.16;;;22.88
64394;BMP280;50712;49.506;10.400;2022-07-06T01:06:21;98572.66;;;22.87
64394;BMP280;50712;49.506;10.400;2022-07-06T01:06:52;98576.72;;;22.86
64394;BMP280;50712;49.506;10.400;2022-07-06T01:07:23;98575.94;;;22.85
64394;BMP280;50712;49.506;10.400;2022-07-06T01:07:54;98575.22;;;22.85
64394;BMP280;50712;49.506;10.400;2022-07-06T01:08:26;98582.06;;;22.84
64394;BMP280;50712;49.506;10.400;2022-07-06T01:08:58;98572.97;;;22.83
64394;BMP280;50712;49.506;10.400;2022-07-06T01:09:29;98574.22;;;22.82
64394;BMP280;50712;49.506;10.400;2022-07-06T01:10:01;98579.00;;;22.82
64394;BMP280;50712;49.506;10.400;2022-07-06T01:10:35;98580.31;;;22.81
64394;BMP280;50712;49.506;10.400;2022-07-06T01:11:06;98579.56;;;22.80
64394;BMP280;50712;49.506;10.400;2022-07-06T01:11:36;98574.00;;;22.80
64394;BMP280;50712;49.506;10.400;2022-07-06T01:12:07;98573.72;;;22.78
64394;BMP280;50712;49.506;10.400;2022-07-06T01:12:39;98573.00;;;22.78
64394;BMP280;50712;49.506;10.400;2022-07-06T01:13:11;98577.06;;;22.77
64394;BMP280;50712;49.506;10.400;2022-07-06T01:13:41;98576.31;;;22.76
64394;BMP280;50712;49.506;10.400;2022-07-06T01:14:12;98574.03;;;22.75
64394;BMP280;50712;49.506;10.400;2022-07-06T01:14:44;98576.06;;;22.74
64394;BMP280;50712;49.506;10.400;2022-07-06T01:15:17;98569.00;;;22.73
64394;BMP280;50712;49.506;10.400;2022-07-06T01:15:51;98568.78;;;22.71
64394;BMP280;50712;49.506;10.400;2022-07-06T01:16:22;98569.53;;;22.72
64394;BMP280;50712;49.506;10.400;2022-07-06T01:16:52;98571.53;;;22.71
64394;BMP280;50712;49.506;10.400;2022-07-06T01:17:23;98568.53;;;22.69
64394;BMP280;50712;49.506;10.400;2022-07-06T01:17:54;98574.84;;;22.70
64394;BMP280;50712;49.506;10.400;2022-07-06T01:18:30;98577.38;;;22.68
64394;BMP280;50712;49.506;10.400;2022-07-06T01:19:00;98572.59;;;22.68
64394;BMP280;50712;49.506;10.400;2022-07-06T01:19:30;98580.94;;;22.68
64394;BMP280;50712;49.506;10.400;2022-07-06T01:20:42;98572.31;;;22.66
64394;BMP280;50712;49.506;10.400;2022-07-06T01:21:13;98569.53;;;22.66
64394;BMP280;50712;49.506;10.400;2022-07-06T01:21:44;98567.31;;;22.65
64394;BMP280;50712;49.506;10.400;2022-07-06T01:22:15;98572.88;;;22.65
64394;BMP280;50712;49.506;10.400;2022-07-06T01:22:46;98568.56;;;22.64
64394;BMP280;50712;49.506;10.400;2022-07-06T01:23:17;98568.56;;;22.64
64394;BMP280;50712;49.506;10.400;2022-07-06T01:23:48;98569.81;;;22.63
64394;BMP280;50712;49.506;10.400;2022-07-06T01:24:19;98571.13;;;22.62
64394;BMP280;50712;49.506;10.400;2022-07-06T01:24:49;98572.41;;;22.61
64394;BMP280;50712;49.506;10.400;2022-07-06T01:25:20;98568.09;;;22.60
64394;BMP280;50712;49.506;10.400;2022-07-06T01:25:50;98566.63;;;22.59
64394;BMP280;50712;49.506;10.400;2022-07-06T01:26:25;98571.41;;;22.58
64394;BMP280;50712;49.506;10.400;2022-07-06T01:26:55;98573.44;;;22.58
64394;BMP280;50712;49.506;10.400;2022-07-06T01:27:26;98567.13;;;22.57
64394;BMP280;50712;49.506;10.400;2022-07-06T01:27:56;98573.19;;;22.56
64394;BMP280;50712;49.506;10.400;2022-07-06T01:28:27;98574.47;;;22.55
64394;BMP280;50712;49.506;10.400;2022-07-06T01:28:57;98573.72;;;22.54
64394;BMP280;50712;49.506;10.400;2022-07-06T01:29:27;98578.50;;;22.54
64394;BMP280;50712;49.506;10.400;2022-07-06T01:29:58;98567.91;;;22.52
64394;BMP280;50712;49.506;10.400;2022-07-06T01:30:29;98578.25;;;22.52
64394;BMP280;50712;49.506;10.400;2022-07-06T01:31:00;98574.00;;;22.51
64394;BMP280;50712;49.506;10.400;2022-07-06T01:31:30;98574.00;;;22.51
64394;BMP280;50712;49.506;10.400;2022-07-06T01:32:02;98580.06;;;22.49
64394;BMP280;50712;49.506;10.400;2022-07-06T01:32:34;98580.06;;;22.49
64394;BMP280;50712;49.506;10.400;2022-07-06T01:33:05;98577.78;;;22.48
64394;BMP280;50712;49.506;10.400;2022-07-06T01:33:35;98581.84;;;22.47
64394;BMP280;50712;49.506;10.400;2022-07-06T01:34:05;98576.81;;;22.45
64394;BMP280;50712;49.506;10.400;2022-07-06T01:34:36;98578.06;;;22.44
64394;BMP280;50712;49.506;10.400;2022-07-06T01:35:08;98572.28;;;22.42
64394;BMP280;50712;49.506;10.400;2022-07-06T01:35:40;98573.53;;;22.41
64394;BMP280;50712;49.506;10.400;2022-07-06T01:36:11;98574.31;;;22.42
64394;BMP280;50712;49.506;10.400;2022-07-06T01:36:41;98569.03;;;22.38
64394;BMP280;50712;49.506;10.400;2022-07-06T01:37:12;98573.34;;;22.39
64394;BMP280;50712;49.506;10.400;2022-07-06T01:37:42;98568.28;;;22.38
64394;BMP280;50712;49.506;10.400;2022-07-06T01:38:13;98569.53;;;22.37
64394;BMP280;50712;49.506;10.400;2022-07-06T01:39:16;98575.09;;;22.37
64394;BMP280;50712;49.506;10.400;2022-07-06T01:39:46;98565.28;;;22.36
64394;BMP280;50712;49.506;10.400;2022-07-06T01:40:17;98568.06;;;22.36
64394;BMP280;50712;49.506;10.400;2022-07-06T01:40:47;98565.28;;;22.36
64394;BMP280;50712;49.506;10.400;2022-07-06T01:41:18;98568.06;;;22.36
64394;BMP280;50712;49.506;10.400;2022-07-06T01:41:49;98565.28;;;22.36
64394;BMP280;50712;49.506;10.400;2022-07-06T01:42:19;98566.00;;;22.36
64394;BMP280;50712;49.506;10.400;2022-07-06T01:42:49;98564.50;;;22.35
64394;BMP280;50712;49.506;10.400;2022-07-06T01:43:20;98569.53;;;22.37
64394;BMP280;50712;49.506;10.400;2022-07-06T01:43:50;98564.50;;;22.35
64394;BMP280;50712;49.506;10.400;2022-07-06T01:44:22;98562.50;;;22.36
64394;BMP280;50712;49.506;10.400;2022-07-06T01:44:52;98572.09;;;22.35
64394;BMP280;50712;49.506;10.400;2022-07-06T01:45:24;98563.75;;;22.35
64394;BMP280;50712;49.506;10.400;2022-07-06T01:45:55;98568.53;;;22.34
64394;BMP280;50712;49.506;10.400;2022-07-06T01:46:26;98565.75;;;22.34
64394;BMP280;50712;49.506;10.400;2022-07-06T01:46:56;98563.00;;;22.34
64394;BMP280;50712;49.506;10.400;2022-07-06T01:47:27;98557.97;;;22.33
64394;BMP280;50712;49.506;10.400;2022-07-06T01:47:57;98568.31;;;22.32
64394;BMP280;50712;49.506;10.400;2022-07-06T01:48:28;98570.34;;;22.32
64394;BMP280;50712;49.506;10.400;2022-07-06T01:48:59;98566.06;;;22.31
64394;BMP280;50712;49.506;10.400;2022-07-06T01:49:30;98563.28;;;22.31
64394;BMP280;50712;49.506;10.400;2022-07-06T01:50:02;98570.88;;;22.30
64394;BMP280;50712;49.506;10.400;2022-07-06T01:50:37;98569.59;;;22.31
64394;BMP280;50712;49.506;10.400;2022-07-06T01:51:07;98569.59;;;22.31
64394;BMP280;50712;49.506;10.400;2022-07-06T01:51:39;98563.06;;;22.29
64394;BMP280;50712;49.506;10.400;2022-07-06T01:52:10;98563.06;;;22.29
64394;BMP280;50712;49.506;10.400;2022-07-06T01:52:41;98561.78;;;22.30
64394;BMP280;50712;49.506;10.400;2022-07-06T01:53:11;98568.09;;;22.30
64394;BMP280;50712;49.506;10.400;2022-07-06T01:53:42;98564.53;;;22.30
64394;BMP280;50712;49.506;10.400;2022-07-06T01:54:13;98562.53;;;22.30
64394;BMP280;50712;49.506;10.400;2022-07-06T01:54:45;98564.53;;;22.30
64394;BMP280;50712;49.506;10.400;2022-07-06T01:55:15;98559.50;;;22.28
64394;BMP280;50712;49.506;10.400;2022-07-06T01:55:46;98565.81;;;22.29
64394;BMP280;50712;49.506;10.400;2022-07-06T01:56:17;98563.56;;;22.27
64394;BMP280;50712;49.506;10.400;2022-07-06T01:56:51;98560.78;;;22.27
64394;BMP280;50712;49.506;10.400;2022-07-06T01:57:21;98557.25;;;22.27
64394;BMP280;50712;49.506;10.400;2022-07-06T01:57:52;98564.81;;;22.26
64394;BMP280;50712;49.506;10.400;2022-07-06T01:58:23;98568.84;;;22.25
64394;BMP280;50712;49.506;10.400;2022-07-06T01:58:53;98564.59;;;22.24
64394;BMP280;50712;49.506;10.400;2022-07-06T01:59:25;98568.13;;;22.25
64394;BMP280;50712;49.506;10.400;2022-07-06T01:59:56;98570.66;;;22.23
64394;BMP280;50712;49.506;10.400;2022-07-06T02:00:26;98570.66;;;22.23
64394;BMP280;50712;49.506;10.400;2022-07-06T02:00:57;98566.34;;;22.22
64394;BMP280;50712;49.506;10.400;2022-07-06T02:01:28;98566.34;;;22.22
64394;BMP280;50712;49.506;10.400;2022-07-06T02:01:59;98576.00;;;22.21
64394;BMP280;50712;49.506;10.400;2022-07-06T02:02:29;98568.91;;;22.20
64394;BMP280;50712;49.506;10.400;2022-07-06T02:03:00;98563.38;;;22.20
64394;BMP280;50712;49.506;10.400;2022-07-06T02:03:30;98572.94;;;22.19
64394;BMP280;50712;49.506;10.400;2022-07-06T02:04:03;98570.94;;;22.19
64394;BMP280;50712;49.506;10.400;2022-07-06T02:04:34;98576.47;;;22.19
64394;BMP280;50712;49.506;10.400;2022-07-06T02:05:05;98572.19;;;22.18
64394;BMP280;50712;49.506;10.400;2022-07-06T02:05:35;98570.16;;;22.19
64394;BMP280;50712;49.506;10.400;2022-07-06T02:06:06;98574.22;;;22.18
64394;BMP280;50712;49.506;10.400;2022-07-06T02:06:37;98571.97;;;22.16
64394;BMP280;50712;49.506;10.400;2022-07-06T02:07:07;98569.19;;;22.16
64394;BMP280;50712;49.506;10.400;2022-07-06T02:07:38;98564.16;;;22.15
64394;BMP280;50712;49.506;10.400;2022-07-06T02:08:08;98566.69;;;22.13
64394;BMP280;50712;49.506;10.400;2022-07-06T02:08:39;98571.47;;;22.12
64394;BMP280;50712;49.506;10.400;2022-07-06T02:09:10;98566.44;;;22.11
64394;BMP280;50712;49.506;10.400;2022-07-06T02:09:40;98566.97;;;22.09
64394;BMP280;50712;49.506;10.400;2022-07-06T02:10:10;98572.25;;;22.07
64394;BMP280;50712;49.506;10.400;2022-07-06T02:10:41;98569.50;;;22.07
64394;BMP280;50712;49.506;10.400;2022-07-06T02:11:11;98575.56;;;22.06
64394;BMP280;50712;49.506;10.400;2022-07-06T02:11:44;98575.56;;;22.06
64394;BMP280;50712;49.506;10.400;2022-07-06T02:12:15;98572.53;;;22.04
64394;BMP280;50712;49.506;10.400;2022-07-06T02:12:45;98576.06;;;22.04
64394;BMP280;50712;49.506;10.400;2022-07-06T02:13:16;98578.59;;;22.02
64394;BMP280;50712;49.506;10.400;2022-07-06T02:13:46;98570.28;;;22.02
64394;BMP280;50712;49.506;10.400;2022-07-06T02:14:17;98572.31;;;22.02
64394;BMP280;50712;49.506;10.400;2022-07-06T02:14:47;98568.25;;;22.03
64394;BMP280;50712;49.506;10.400;2022-07-06T02:15:17;98569.53;;;22.02
64394;BMP280;50712;49.506;10.400;2022-07-06T02:15:48;98567.25;;;22.00
64394;BMP280;50712;49.506;10.400;2022-07-06T02:16:19;98566.00;;;22.01
64394;BMP280;50712;49.506;10.400;2022-07-06T02:16:50;98568.03;;;22.01
64394;BMP280;50712;49.506;10.400;2022-07-06T02:17:22;98572.81;;;22.00
64394;BMP280;50712;49.506;10.400;2022-07-06T02:17:53;98561.72;;;22.00
64394;BMP280;50712;49.506;10.400;2022-07-06T02:18:28;98566.50;;;22.00
64394;BMP280;50712;49.506;10.400;2022-07-06T02:19:00;98566.50;;;22.00
64394;BMP280;50712;49.506;10.400;2022-07-06T02:19:32;98568.50;;;21.99
64394;BMP280;50712;49.506;10.400;2022-07-06T02:20:03;98565.00;;;21.99
64394;BMP280;50712;49.506;10.400;2022-07-06T02:20:35;98569.06;;;21.98
64394;BMP280;50712;49.506;10.400;2022-07-06T02:21:05;98565.50;;;21.97
64394;BMP280;50712;49.506;10.400;2022-07-06T02:21:36;98565.50;;;21.97
64394;BMP280;50712;49.506;10.400;2022-07-06T02:22:06;98569.53;;;21.96
64394;BMP280;50712;49.506;10.400;2022-07-06T02:22:37;98568.28;;;21.97
64394;BMP280;50712;49.506;10.400;2022-07-06T02:23:07;98573.06;;;21.97
64394;BMP280;50712;49.506;10.400;2022-07-06T02:23:38;98575.09;;;21.96
64394;BMP280;50712;49.506;10.400;2022-07-06T02:24:09;98566.75;;;21.96
64394;BMP280;50712;49.506;10.400;2022-07-06T02:24:39;98569.53;;;21.96
64394;BMP280;50712;49.506;10.400;2022-07-06T02:25:10;98562.50;;;21.95
64394;BMP280;50712;49.506;10.400;2022-07-06T02:25:42;98568.03;;;21.95
64394;BMP280;50712;49.506;10.400;2022-07-06T02:26:13;98567.28;;;21.95
64394;BMP280;50712;49.506;10.400;2022-07-06T02:26:43;98575.59;;;21.95
64394;BMP280;50712;49.506;10.400;2022-07-06T02:27:14;98572.84;;;21.95
64394;BMP280;50712;49.506;10.400;2022-07-06T02:27:45;98569.31;;;21.94
64394;BMP280;50712;49.506;10.400;2022-07-06T02:28:16;98564.50;;;21.95
64394;BMP280;50712;49.506;10.400;2022-07-06T02:28:47;98576.88;;;21.94
64394;BMP280;50712;49.506;10.400;2022-07-06T02:29:18;98574.13;;;21.94
64394;BMP280;50712;49.506;10.400;2022-07-06T02:29:48;98570.56;;;21.93
64394;BMP280;50712;49.506;10.400;2022-07-06T02:30:19;98570.56;;;21.93
64394;BMP280;50712;49.506;10.400;2022-07-06T02:30:49;98571.09;;;21.92
64394;BMP280;50712;49.506;10.400;2022-07-06T02:31:20;98575.13;;;21.91
64394;BMP280;50712;49.506;10.400;2022-07-06T02:31:51;98577.88;;;21.91
64394;BMP280;50712;49.506;10.400;2022-07-06T02:32:22;98572.88;;;21.89
64394;BMP280;50712;49.506;10.400;2022-07-06T02:32:53;98572.59;;;21.87
64394;BMP280;50712;49.506;10.400;2022-07-06T02:33:24;98572.59;;;21.87
64394;BMP280;50712;49.506;10.400;2022-07-06T02:33:55;98571.63;;;21.84
64394;BMP280;50712;49.506;10.400;2022-07-06T02:34:25;98577.69;;;21.83
64394;BMP280;50712;49.506;10.400;2022-07-06T02:34:56;98573.91;;;21.80
64394;BMP280;50712;49.506;10.400;2022-07-06T02:35:29;98579.00;;;21.76
64394;BMP280;50712;49.506;10.400;2022-07-06T02:35:59;98577.25;;;21.73
64394;BMP280;50712;49.506;10.400;2022-07-06T02:36:29;98577.75;;;21.72
64394;BMP280;50712;49.506;10.400;2022-07-06T02:37:00;98580.28;;;21.70
64394;BMP280;50712;49.506;10.400;2022-07-06T02:37:30;98578.00;;;21.68
64394;BMP280;50712;49.506;10.400;2022-07-06T02:38:01;98577.03;;;21.66
64394;BMP280;50712;49.506;10.400;2022-07-06T02:38:31;98579.03;;;21.65
64394;BMP280;50712;49.506;10.400;2022-07-06T02:39:02;98574.72;;;21.64
64394;BMP280;50712;49.506;10.400;2022-07-06T02:39:33;98574.00;;;21.64
64394;BMP280;50712;49.506;10.400;2022-07-06T02:40:04;98582.84;;;21.62
64394;BMP280;50712;49.506;10.400;2022-07-06T02:40:36;98580.53;;;21.61
64394;BMP280;50712;49.506;10.400;2022-07-06T02:41:09;98575.00;;;21.61
64394;BMP280;50712;49.506;10.400;2022-07-06T02:41:39;98579.81;;;21.60
64394;BMP280;50712;49.506;10.400;2022-07-06T02:42:09;98579.81;;;21.60
64394;BMP280;50712;49.506;10.400;2022-07-06T02:42:40;98578.28;;;21.59
64394;BMP280;50712;49.506;10.400;2022-07-06T02:43:12;98586.59;;;21.59
64394;BMP280;50712;49.506;10.400;2022-07-06T02:43:44;98578.28;;;21.59
64394;BMP280;50712;49.506;10.400;2022-07-06T02:44:14;98575.28;;;21.57
64394;BMP280;50712;49.506;10.400;2022-07-06T02:44:45;98581.56;;;21.58
64394;BMP280;50712;49.506;10.400;2022-07-06T02:45:15;98581.56;;;21.58
64394;BMP280;50712;49.506;10.400;2022-07-06T02:45:46;98573.25;;;21.58
64394;BMP280;50712;49.506;10.400;2022-07-06T02:46:17;98578.06;;;21.57
64394;BMP280;50712;49.506;10.400;2022-07-06T02:46:49;98571.00;;;21.56
64394;BMP280;50712;49.506;10.400;2022-07-06T02:47:19;98580.06;;;21.57
64394;BMP280;50712;49.506;10.400;2022-07-06T02:47:50;98578.56;;;21.56
64394;BMP280;50712;49.506;10.400;2022-07-06T02:48:21;98577.78;;;21.55
64394;BMP280;50712;49.506;10.400;2022-07-06T02:48:54;98582.59;;;21.55
64394;BMP280;50712;49.506;10.400;2022-07-06T02:49:24;98585.38;;;21.55
64394;BMP280;50712;49.506;10.400;2022-07-06T02:49:55;98580.34;;;21.53
64394;BMP280;50712;49.506;10.400;2022-07-06T02:50:26;98583.88;;;21.54
64394;BMP280;50712;49.506;10.400;2022-07-06T02:50:58;98587.13;;;21.52
64394;BMP280;50712;49.506;10.400;2022-07-06T02:51:29;98582.34;;;21.53
64394;BMP280;50712;49.506;10.400;2022-07-06T02:51:59;98581.59;;;21.52
64394;BMP280;50712;49.506;10.400;2022-07-06T02:52:30;98581.59;;;21.52
64394;BMP280;50712;49.506;10.400;2022-07-06T02:53:02;98585.63;;;21.51
64394;BMP280;50712;49.506;10.400;2022-07-06T02:53:34;98584.91;;;21.51
64394;BMP280;50712;49.506;10.400;2022-07-06T02:54:05;98591.69;;;21.50
64394;BMP280;50712;49.506;10.400;2022-07-06T02:54:35;98584.16;;;21.50
64394;BMP280;50712;49.506;10.400;2022-07-06T02:55:07;98588.16;;;21.49
64394;BMP280;50712;49.506;10.400;2022-07-06T02:55:38;98589.69;;;21.50
64394;BMP280;50712;49.506;10.400;2022-07-06T02:56:10;98589.41;;;21.48
64394;BMP280;50712;49.506;10.400;2022-07-06T02:56:40;98592.94;;;21.49
64394;BMP280;50712;49.506;10.400;2022-07-06T02:57:12;98592.19;;;21.48